Time;durP1;ratioP1;P1;durP2;ratioP2;P2;SDS_P1;SDS_P2;PMS_P1;PMS_P2;Temp;Humidity;BMP_temperature;BMP_pressure;BME280_temperature;BME280_humidity;BME280_pressure;Samples;Min_cycle;Max_cycle;Signal;HPM_P1;HPM_P2
2022/06/04 00:01:26;;;;;;;7.07;5.60;;;28.10;57.70;;;;;;4948032;29;20038;-81
2022/06/04 00:03:52;;;;;;;8.00;5.65;;;28.30;58.10;;;;;;4935375;29;20028;-84
2022/06/04 00:06:18;;;;;;;6.50;5.30;;;28.30;58.30;;;;;;4936308;29;20028;-81
2022/06/04 00:08:44;;;;;;;7.43;5.57;;;28.20;58.60;;;;;;4937230;29;20091;-85
2022/06/04 00:16:37;;;;;;;7.63;6.68;;;27.70;59.90;;;;;;4935981;29;20543;-78
2022/06/04 00:19:03;;;;;;;7.13;5.68;;;27.80;60.00;;;;;;4935681;29;20039;-81
2022/06/04 00:21:30;;;;;;;8.88;6.28;;;27.30;60.90;;;;;;4936546;29;20404;-78
2022/06/04 00:23:56;;;;;;;8.32;6.10;;;26.90;62.50;;;;;;4936099;29;20051;-78
2022/06/04 00:26:22;;;;;;;8.73;6.63;;;27.10;61.70;;;;;;4936111;29;20023;-78
2022/06/04 00:28:48;;;;;;;7.15;5.43;;;27.40;61.40;;;;;;4935459;29;20435;-80
2022/06/04 00:31:18;;;;;;;8.98;6.40;;;26.90;62.50;;;;;;4934203;29;20119;-79
2022/06/04 00:33:44;;;;;;;8.50;7.45;;;26.70;63.60;;;;;;4929541;29;20051;-79
2022/06/04 00:36:11;;;;;;;11.13;7.85;;;26.80;63.40;;;;;;4935417;29;20066;-79
2022/06/04 00:38:37;;;;;;;8.43;7.05;;;27.00;63.90;;;;;;4934990;29;20043;-78
2022/06/04 00:41:21;;;;;;;7.03;6.13;;;27.20;63.10;;;;;;4933821;29;20028;-79
2022/06/04 00:44:31;;;;;;;9.60;6.80;;;27.10;62.80;;;;;;4931483;29;20098;-79
2022/06/04 00:47:21;;;;;;;10.73;8.90;;;27.20;63.10;;;;;;4923380;29;20386;-80
2022/06/04 00:49:47;;;;;;;;;;;27.20;62.90;;;;;;4933002;29;21661;-79
2022/06/04 00:52:15;;;;;;;9.20;7.60;;;27.30;63.40;;;;;;4922023;29;20393;-80
2022/06/04 00:54:43;;;;;;;10.68;6.75;;;27.40;63.40;;;;;;4934090;29;20032;-77
2022/06/04 00:57:44;;;;;;;10.70;7.43;;;27.50;62.50;;;;;;4933581;29;20031;-77
2022/06/04 01:00:17;;;;;;;7.63;6.82;;;27.40;62.90;;;;;;4932000;29;20032;-81
2022/06/04 01:03:15;;;;;;;9.15;7.00;;;26.90;64.80;;;;;;4930308;29;20134;-80
2022/06/04 01:06:09;;;;;;;10.15;6.93;;;26.70;64.50;;;;;;4915440;29;20032;-82
2022/06/04 01:08:53;;;;;;;8.45;6.15;;;26.70;64.80;;;;;;4935408;29;20027;-81
2022/06/04 01:11:21;;;;;;;8.23;6.75;;;26.40;66.20;;;;;;4920013;29;20023;-79
2022/06/04 01:13:55;;;;;;;6.18;5.55;;;26.50;65.70;;;;;;4935774;29;20055;-80
2022/06/04 01:16:59;;;;;;;9.50;6.72;;;26.50;66.30;;;;;;4934195;29;20363;-79
2022/06/04 01:19:34;;;;;;;7.90;6.68;;;26.50;66.30;;;;;;4924881;29;20035;-80
2022/06/04 01:22:11;;;;;;;11.50;8.02;;;26.90;65.50;;;;;;4931173;29;20039;-79
2022/06/04 01:24:59;;;;;;;12.02;7.88;;;27.10;65.30;;;;;;4924265;29;20034;-79
2022/06/04 01:28:00;;;;;;;10.27;8.20;;;27.30;65.50;;;;;;4930118;29;20091;-79
2022/06/04 01:30:35;;;;;;;9.15;7.95;;;27.30;64.70;;;;;;4895771;29;20060;-81
2022/06/04 01:33:17;;;;;;;11.93;8.45;;;27.30;64.60;;;;;;4905988;29;20024;-80
2022/06/04 01:35:46;;;;;;;9.88;8.68;;;27.30;64.60;;;;;;4898684;29;20574;-80
2022/06/04 01:38:24;;;;;;;9.13;8.05;;;27.40;64.40;;;;;;4893606;29;20095;-81
2022/06/04 01:41:17;;;;;;;11.77;7.68;;;27.50;64.20;;;;;;4898912;29;20548;-84
2022/06/04 01:43:52;;;;;;;9.65;8.65;;;27.30;65.30;;;;;;4897870;29;20047;-91
2022/06/04 01:46:35;;;;;;;10.90;8.57;;;27.20;65.40;;;;;;4914971;29;20047;-86
2022/06/04 01:49:20;;;;;;;10.25;8.40;;;27.30;64.70;;;;;;4899346;29;20039;-86
2022/06/04 01:51:49;;;;;;;11.20;9.40;;;27.30;65.20;;;;;;4901645;29;20112;-83
2022/06/04 01:54:25;;;;;;;11.13;9.02;;;27.30;64.70;;;;;;4880198;29;20048;-80
2022/06/04 01:57:00;;;;;;;10.70;8.82;;;27.40;64.80;;;;;;4907180;29;20143;-79
2022/06/04 01:59:36;;;;;;;11.88;10.15;;;27.30;65.00;;;;;;4911811;29;20027;-81
2022/06/04 02:02:07;;;;;;;10.52;8.32;;;27.40;64.90;;;;;;4914187;29;20036;-82
2022/06/04 02:04:38;;;;;;;11.63;7.22;;;27.20;66.60;;;;;;4896046;29;20035;-80
2022/06/04 02:07:32;;;;;;;8.95;6.70;;;26.80;67.30;;;;;;4920692;29;20155;-82
2022/06/04 02:10:31;;;;;;;8.82;7.40;;;26.00;70.00;;;;;;4934580;29;20028;-79
2022/06/04 02:13:01;;;;;;;10.15;6.57;;;25.60;71.40;;;;;;4931592;29;20036;-80
2022/06/04 02:15:40;;;;;;;11.77;9.07;;;25.90;71.00;;;;;;4933884;29;21875;-83
2022/06/04 02:18:09;;;;;;;9.63;8.02;;;26.40;69.80;;;;;;4937345;29;20031;-81
2022/06/04 02:20:35;;;;;;;11.23;9.35;;;26.80;68.80;;;;;;4937347;29;20040;-91
2022/06/04 02:23:02;;;;;;;13.32;10.50;;;26.90;68.30;;;;;;4937809;29;20039;-86
2022/06/04 02:25:29;;;;;;;12.07;8.75;;;27.00;67.90;;;;;;4947577;29;20030;-94
2022/06/04 02:27:55;;;;;;;13.30;11.55;;;27.10;67.20;;;;;;4937995;29;20035;-86
2022/06/04 02:30:21;;;;;;;10.05;7.88;;;27.20;67.20;;;;;;4926347;29;20609;-85
2022/06/04 02:33:11;;;;;;;9.13;7.75;;;26.90;68.00;;;;;;4938569;29;20040;-86
2022/06/04 02:35:52;;;;;;;14.07;10.80;;;26.00;71.10;;;;;;4938965;29;20031;-84
2022/06/04 02:38:28;;;;;;;12.88;10.05;;;26.20;70.80;;;;;;4934916;29;20044;-87
2022/06/04 02:41:02;;;;;;;13.10;9.90;;;26.50;69.50;;;;;;4938648;29;20031;-88
2022/06/04 02:43:34;;;;;;;12.18;10.40;;;26.80;68.60;;;;;;4933487;29;20032;-91
2022/06/04 02:46:11;;;;;;;11.50;9.63;;;26.90;68.00;;;;;;4937329;29;20027;-91
2022/06/04 02:48:51;;;;;;;12.25;10.25;;;27.00;68.00;;;;;;4910813;29;20032;-90
2022/06/04 02:51:25;;;;;;;9.97;8.10;;;27.10;67.90;;;;;;4918412;29;20387;-89
2022/06/04 02:54:10;;;;;;;14.50;9.60;;;26.30;70.00;;;;;;4934317;29;20032;-91
2022/06/04 02:56:38;;;;;;;11.88;8.98;;;26.30;69.90;;;;;;4936733;29;20031;-91
2022/06/04 02:59:07;;;;;;;14.40;10.38;;;26.50;69.30;;;;;;4934541;29;20074;-88
2022/06/04 03:01:38;;;;;;;11.40;8.80;;;26.80;68.50;;;;;;4929481;29;20130;-91
2022/06/04 03:04:06;;;;;;;10.75;7.78;;;26.90;68.10;;;;;;4938358;29;20032;-88
2022/06/04 03:06:32;;;;;;;9.82;7.32;;;26.20;69.80;;;;;;4934785;29;20543;-91
2022/06/04 03:09:13;;;;;;;12.15;9.20;;;24.90;73.40;;;;;;4937247;29;20423;-87
2022/06/04 03:11:47;;;;;;;12.55;9.75;;;24.60;76.10;;;;;;4933108;29;20522;-91
2022/06/04 03:14:15;;;;;;;10.45;9.35;;;25.20;74.20;;;;;;4934315;29;20028;-92
2022/06/04 03:16:49;;;;;;;11.02;9.02;;;25.90;71.90;;;;;;4930686;29;20027;-93
2022/06/04 03:19:14;;;;;;;11.55;9.60;;;26.40;70.50;;;;;;4937702;29;20047;-95
2022/06/04 03:21:42;;;;;;;11.52;9.68;;;26.70;69.60;;;;;;4938188;29;20036;-86
2022/06/04 03:24:09;;;;;;;11.32;10.00;;;26.90;68.80;;;;;;4937222;29;20498;-91
2022/06/04 03:26:35;;;;;;;10.27;9.13;;;27.00;68.60;;;;;;4924193;29;20028;-88
2022/06/04 03:29:01;;;;;;;10.07;9.05;;;27.00;68.30;;;;;;4929576;29;20090;-87
2022/06/04 03:31:27;;;;;;;11.52;9.43;;;26.90;68.50;;;;;;4942706;29;20179;-84
2022/06/04 03:33:57;;;;;;;10.68;8.90;;;26.80;68.70;;;;;;4929527;29;20032;-87
2022/06/04 03:36:25;;;;;;;11.00;9.47;;;26.70;68.80;;;;;;4945848;29;20475;-87
2022/06/04 03:38:54;;;;;;;12.57;9.65;;;26.90;68.60;;;;;;4946071;29;20282;-91
2022/06/04 03:41:20;;;;;;;13.05;10.65;;;27.10;68.20;;;;;;4945732;29;20028;-87
2022/06/04 03:43:51;;;;;;;15.00;11.00;;;27.10;67.90;;;;;;4940742;29;20042;-85
2022/06/04 03:46:20;;;;;;;10.95;9.18;;;27.20;67.80;;;;;;4936996;29;20383;-89
2022/06/04 03:48:46;;;;;;;13.40;9.35;;;27.20;68.00;;;;;;4936746;29;20035;-80
2022/06/04 03:51:11;;;;;;;12.32;9.50;;;27.20;68.20;;;;;;4935583;29;20431;-85
2022/06/04 03:53:37;;;;;;;9.77;8.73;;;26.90;68.70;;;;;;4936900;29;20039;-91
2022/06/04 03:56:03;;;;;;;10.68;9.25;;;26.90;68.90;;;;;;4936488;29;20115;-86
2022/06/04 03:58:30;;;;;;;14.85;9.57;;;27.00;68.70;;;;;;4937756;29;20027;-89
2022/06/04 04:00:57;;;;;;;12.02;8.68;;;27.10;68.60;;;;;;4933375;29;20051;-85
2022/06/04 04:03:24;;;;;;;11.32;8.40;;;27.30;68.40;;;;;;4917235;29;20071;-90
2022/06/04 04:05:54;;;;;;;10.35;8.27;;;27.40;68.20;;;;;;4926713;29;20055;-83
2022/06/04 04:08:24;;;;;;;11.15;8.43;;;27.40;67.80;;;;;;4935693;29;20038;-84
2022/06/04 04:11:01;;;;;;;8.88;7.88;;;27.40;67.80;;;;;;4933764;29;20038;-91
2022/06/04 04:13:27;;;;;;;11.00;8.43;;;27.40;68.30;;;;;;4937407;29;20036;-92
2022/06/04 04:15:53;;;;;;;12.45;7.20;;;27.30;68.20;;;;;;4929414;29;20123;-89
2022/06/04 04:18:18;;;;;;;13.13;8.48;;;27.00;69.30;;;;;;4925666;29;20442;-85
2022/06/04 04:20:45;;;;;;;11.07;8.10;;;26.60;70.60;;;;;;4928265;29;20024;-86
2022/06/04 04:23:11;;;;;;;12.40;9.52;;;26.40;71.00;;;;;;4936618;29;20048;-89
2022/06/04 04:25:38;;;;;;;11.52;8.77;;;25.80;73.10;;;;;;4936364;29;20031;-87
2022/06/04 04:28:05;;;;;;;15.38;10.02;;;26.00;72.40;;;;;;4918752;29;20501;-84
2022/06/04 04:30:34;;;;;;;11.07;8.20;;;26.40;71.30;;;;;;4921450;29;20035;-90
2022/06/04 04:33:00;;;;;;;14.07;10.40;;;26.50;71.10;;;;;;4936098;29;20386;-86
2022/06/04 04:35:29;;;;;;;15.00;9.70;;;26.70;71.00;;;;;;4937851;29;20066;-84
2022/06/04 04:37:56;;;;;;;11.50;9.70;;;26.90;70.30;;;;;;4935673;29;20127;-85
2022/06/04 04:40:24;;;;;;;11.35;9.85;;;27.20;69.90;;;;;;4931889;29;20027;-85
2022/06/04 04:42:49;;;;;;;10.73;8.90;;;27.20;69.40;;;;;;4936436;29;20039;-89
2022/06/04 04:45:18;;;;;;;9.45;8.07;;;27.10;69.80;;;;;;4934325;29;20352;-88
2022/06/04 04:47:45;;;;;;;13.10;10.13;;;26.20;72.50;;;;;;4949094;29;20414;-80
2022/06/04 04:50:37;;;;;;;12.55;8.93;;;25.50;74.60;;;;;;4938181;29;20403;-88
2022/06/04 04:53:10;;;;;;;14.25;9.50;;;25.70;74.00;;;;;;4928361;29;20032;-88
2022/06/04 04:55:36;;;;;;;12.50;9.10;;;25.40;75.20;;;;;;4941989;29;20035;-88
2022/06/04 04:58:03;;;;;;;12.45;8.95;;;25.70;73.90;;;;;;4920216;29;20487;-85
2022/06/04 05:00:30;;;;;;;10.48;8.15;;;26.10;73.00;;;;;;4919394;29;20063;-85
2022/06/04 05:02:57;;;;;;;8.85;6.75;;;26.20;72.80;;;;;;4936016;29;20387;-85
2022/06/04 05:05:23;;;;;;;10.48;8.10;;;26.20;73.00;;;;;;4920251;29;20036;-89
2022/06/04 05:07:49;;;;;;;11.30;7.68;;;26.30;72.50;;;;;;4936086;29;20036;-85
2022/06/04 05:10:15;;;;;;;11.88;8.55;;;26.40;72.10;;;;;;4936528;29;20028;-86
2022/06/04 05:12:41;;;;;;;10.52;8.50;;;26.10;73.10;;;;;;4937134;29;20028;-83
2022/06/04 05:15:08;;;;;;;9.27;8.02;;;26.30;72.40;;;;;;4953726;29;20071;-87
2022/06/04 05:17:34;;;;;;;13.60;9.32;;;26.20;72.70;;;;;;4936320;29;20059;-79
2022/06/04 05:19:59;;;;;;;10.07;8.85;;;26.10;73.20;;;;;;4935005;29;20024;-86
2022/06/04 05:22:25;;;;;;;11.40;8.43;;;26.20;72.50;;;;;;4951468;29;20036;-88
2022/06/04 05:24:51;;;;;;;12.77;7.80;;;26.20;73.50;;;;;;4935418;29;20031;-87
2022/06/04 05:27:17;;;;;;;12.60;9.43;;;25.50;75.30;;;;;;4936157;29;20039;-88
2022/06/04 05:29:43;;;;;;;12.30;9.88;;;25.40;76.30;;;;;;4935294;29;20035;-89
2022/06/04 05:32:12;;;;;;;13.65;9.88;;;25.80;74.80;;;;;;4935018;29;20020;-88
2022/06/04 05:34:38;;;;;;;14.27;9.70;;;26.30;73.40;;;;;;4935228;29;20467;-91
2022/06/04 05:37:05;;;;;;;16.25;10.63;;;26.60;72.30;;;;;;4935156;29;20048;-91
2022/06/04 05:39:31;;;;;;;11.82;8.95;;;26.90;71.40;;;;;;4934206;29;20031;-91
2022/06/04 05:42:02;;;;;;;13.13;8.80;;;27.20;70.70;;;;;;4935093;29;20040;-89
2022/06/04 05:44:30;;;;;;;13.50;9.90;;;27.30;69.90;;;;;;4935145;29;20075;-89
2022/06/04 05:46:56;;;;;;;12.75;9.10;;;27.40;69.40;;;;;;4934880;29;20126;-89
2022/06/04 05:49:22;;;;;;;9.73;8.02;;;27.10;69.90;;;;;;4934828;29;20179;-87
2022/06/04 05:51:49;;;;;;;12.00;7.30;;;27.00;69.90;;;;;;4937798;29;20031;-89
2022/06/04 05:54:15;;;;;;;10.30;7.70;;;26.90;70.00;;;;;;4938655;29;20024;-87
2022/06/04 05:56:44;;;;;;;10.30;7.97;;;27.00;69.80;;;;;;4938429;29;20024;-85
2022/06/04 05:59:13;;;;;;;8.55;7.07;;;27.10;69.60;;;;;;4938746;29;20031;-87
2022/06/04 06:01:41;;;;;;;10.77;7.60;;;27.00;70.00;;;;;;4939996;29;20036;-87
2022/06/04 06:04:11;;;;;;;10.70;7.00;;;27.00;70.50;;;;;;4938710;29;20058;-84
2022/06/04 06:06:45;;;;;;;10.15;6.72;;;27.00;70.00;;;;;;4933375;29;20028;-81
2022/06/04 06:09:12;;;;;;;10.25;7.95;;;27.10;69.70;;;;;;4935207;29;20028;-84
2022/06/04 06:11:40;;;;;;;8.13;6.55;;;27.10;69.70;;;;;;4935623;29;20064;-86
2022/06/04 06:14:07;;;;;;;12.73;7.53;;;27.10;69.80;;;;;;4944234;29;20038;-85
2022/06/04 06:16:35;;;;;;;11.35;7.38;;;27.30;69.30;;;;;;4925025;29;20035;-84
2022/06/04 06:19:01;;;;;;;11.93;7.60;;;27.20;69.90;;;;;;4595912;29;9999749;-88
2022/06/04 06:21:30;;;;;;;11.35;8.25;;;27.30;69.90;;;;;;4936779;29;20044;-86
2022/06/04 06:23:57;;;;;;;10.43;6.80;;;27.30;69.50;;;;;;4956351;29;20082;-85
2022/06/04 06:26:28;;;;;;;9.43;6.82;;;27.30;69.70;;;;;;4956426;29;20041;-81
2022/06/04 06:28:59;;;;;;;10.43;6.80;;;27.00;70.40;;;;;;4956684;29;20031;-87
2022/06/04 06:31:44;;;;;;;10.02;7.03;;;27.10;70.10;;;;;;4955779;29;20078;-91
2022/06/04 06:34:16;;;;;;;10.93;6.32;;;27.20;69.60;;;;;;4953428;29;20086;-89
2022/06/04 06:36:45;;;;;;;10.88;6.80;;;27.10;69.80;;;;;;4921451;29;20122;-90
2022/06/04 06:39:14;;;;;;;8.45;5.82;;;27.10;70.10;;;;;;4920812;29;20028;-89
2022/06/04 06:41:40;;;;;;;13.23;6.43;;;27.10;69.90;;;;;;4933133;29;20080;-87
2022/06/04 06:44:06;;;;;;;11.02;5.63;;;26.80;70.70;;;;;;4934680;29;20103;-89
2022/06/04 06:46:41;;;;;;;10.18;5.95;;;26.80;70.80;;;;;;4937182;29;20371;-84
2022/06/04 06:49:28;;;;;;;10.98;5.00;;;26.40;72.10;;;;;;4937151;29;20035;-88
2022/06/04 06:51:57;;;;;;;11.88;5.60;;;26.20;72.30;;;;;;4939237;29;20036;-88
2022/06/04 06:54:25;;;;;;;9.25;4.97;;;25.50;74.60;;;;;;4952337;29;20131;-87
2022/06/04 06:56:56;;;;;;;10.13;6.38;;;25.50;74.70;;;;;;4938960;29;20034;-93
2022/06/04 06:59:23;;;;;;;;;;;25.60;74.20;;;;;;4936609;29;20027;-84
2022/06/04 07:01:50;;;;;;;7.35;4.75;;;25.10;75.40;;;;;;4937776;28;20486;-85
2022/06/04 07:04:16;;;;;;;13.05;4.82;;;24.20;78.60;;;;;;4921444;29;20395;-81
2022/06/04 07:06:51;;;;;;;12.98;5.13;;;24.00;79.20;;;;;;4925298;29;20066;-83
2022/06/04 07:09:20;;;;;;;9.55;5.40;;;23.90;80.60;;;;;;4947385;29;20086;-82
2022/06/04 07:11:47;;;;;;;8.32;5.40;;;23.70;81.20;;;;;;4955552;29;20027;-82
2022/06/04 07:14:13;;;;;;;9.40;4.93;;;23.20;82.60;;;;;;4946560;29;20103;-80
2022/06/04 07:16:40;;;;;;;9.32;4.72;;;23.30;82.70;;;;;;4935540;29;20491;-81
2022/06/04 07:19:06;;;;;;;10.80;5.35;;;23.40;82.60;;;;;;4934697;29;20099;-82
2022/06/04 07:21:32;;;;;;;11.13;4.97;;;23.40;82.90;;;;;;4937566;29;20058;-86
2022/06/04 07:23:58;;;;;;;9.85;5.90;;;23.60;82.90;;;;;;4937919;29;20035;-91
2022/06/04 07:26:25;;;;;;;9.30;4.93;;;24.10;81.20;;;;;;4949801;29;20019;-82
2022/06/04 07:28:52;;;;;;;10.32;5.40;;;24.20;80.60;;;;;;4955662;29;20086;-87
2022/06/04 07:31:18;;;;;;;12.38;6.22;;;24.40;80.10;;;;;;4917523;29;20468;-81
2022/06/04 07:33:48;;;;;;;11.25;6.78;;;24.70;79.40;;;;;;4917993;29;20032;-88
2022/06/04 07:36:25;;;;;;;9.38;5.47;;;25.50;77.10;;;;;;4935116;29;20118;-86
2022/06/04 07:38:51;;;;;;;10.65;5.20;;;26.00;75.10;;;;;;4935932;29;20035;-88
2022/06/04 07:41:24;;;;;;;8.90;4.97;;;26.40;74.00;;;;;;4936382;29;20024;-85
2022/06/04 07:43:50;;;;;;;11.02;5.20;;;26.70;72.90;;;;;;4920186;29;20106;-84
2022/06/04 07:46:17;;;;;;;10.95;6.10;;;26.70;72.70;;;;;;4920604;29;20051;-83
2022/06/04 07:48:43;;;;;;;7.93;4.57;;;26.90;71.90;;;;;;4920797;29;20036;-89
2022/06/04 07:51:08;;;;;;;10.75;5.28;;;27.10;71.30;;;;;;4934730;29;20511;-88
2022/06/04 07:53:35;;;;;;;7.70;4.93;;;27.20;71.10;;;;;;4936555;29;20130;-85
2022/06/04 07:56:09;;;;;;;8.10;4.70;;;27.30;70.90;;;;;;4935284;29;20024;-87
2022/06/04 07:58:36;;;;;;;9.98;5.63;;;27.20;70.60;;;;;;4936259;29;20134;-85
2022/06/04 08:01:03;;;;;;;11.73;5.35;;;27.30;70.20;;;;;;4921548;29;20035;-81
2022/06/04 08:03:30;;;;;;;9.38;5.00;;;27.30;70.80;;;;;;4939746;29;20043;-85
2022/06/04 08:05:56;;;;;;;12.50;5.40;;;27.30;70.80;;;;;;4936017;29;20028;-88
2022/06/04 08:08:37;;;;;;;9.90;5.35;;;27.50;70.10;;;;;;4932366;29;20032;-92
2022/06/04 08:13:51;;;;;;;13.23;6.28;;;27.60;69.50;;;;;;4966716;23;20040;-91
2022/06/04 08:16:17;;;;;;;8.73;4.88;;;27.70;69.30;;;;;;4920636;29;20016;-89
2022/06/04 08:18:43;;;;;;;6.30;4.70;;;27.80;69.50;;;;;;4923804;29;20024;-86
2022/06/04 08:21:09;;;;;;;8.93;5.32;;;27.60;70.50;;;;;;4939251;29;20024;-85
2022/06/04 08:23:35;;;;;;;12.15;4.95;;;27.00;71.70;;;;;;4934389;29;20031;-84
2022/06/04 08:26:01;;;;;;;7.10;4.80;;;27.10;72.20;;;;;;4939549;29;20031;-88
2022/06/04 08:28:27;;;;;;;8.93;4.65;;;26.80;72.90;;;;;;4939509;29;20118;-84
2022/06/04 08:31:02;;;;;;;9.63;5.45;;;26.70;73.20;;;;;;4955951;29;20031;-81
2022/06/04 08:33:28;;;;;;;8.73;5.38;;;26.60;74.20;;;;;;3915130;29;10000729;-81
2022/06/04 08:35:54;;;;;;;11.80;5.53;;;26.50;74.10;;;;;;4941585;29;20475;-83
2022/06/04 08:38:20;;;;;;;9.93;5.88;;;26.70;73.70;;;;;;4935912;29;20031;-87
2022/06/04 08:40:52;;;;;;;9.02;6.50;;;27.10;72.60;;;;;;4939010;29;20019;-83
2022/06/04 08:43:45;;;;;;;12.23;6.13;;;27.40;71.50;;;;;;4950213;28;20051;-85
2022/06/04 08:46:31;;;;;;;9.32;5.40;;;27.70;70.30;;;;;;4940961;29;20012;-81
2022/06/04 08:49:02;;;;;;;10.10;5.63;;;27.70;69.70;;;;;;4926854;29;20050;-85
2022/06/04 08:51:29;;;;;;;;;;;27.30;71.00;;;;;;4936388;29;20026;-82
2022/06/04 08:53:57;;;;;;;11.60;7.47;;;26.90;72.20;;;;;;4947305;29;19921;-94
2022/06/04 09:00:05;;;;;;;11.38;6.10;;;26.80;73.30;;;;;;4955896;29;20530;-83
2022/06/04 09:03:04;;;;;;;11.65;5.40;;;27.00;73.20;;;;;;4925825;29;20036;-82
2022/06/04 09:05:59;;;;;;;9.90;6.28;;;27.00;71.70;;;;;;4859720;29;20038;-83
2022/06/04 09:08:51;;;;;;;10.73;5.55;;;27.30;71.60;;;;;;4859183;29;20038;-87
2022/06/04 09:11:29;;;;;;;10.88;6.20;;;27.40;71.30;;;;;;4858209;29;20033;-89
2022/06/04 09:14:13;;;;;;;9.10;5.47;;;27.40;71.20;;;;;;4874721;29;20477;-88
2022/06/04 09:16:46;;;;;;;10.70;6.03;;;26.90;72.90;;;;;;4862259;29;20128;-88
2022/06/04 09:19:19;;;;;;;12.90;6.32;;;26.90;73.00;;;;;;4877784;29;20112;-83
2022/06/04 09:21:47;;;;;;;9.43;6.10;;;27.10;72.00;;;;;;4877758;29;20060;-82
2022/06/04 09:24:13;;;;;;;11.43;5.50;;;27.40;71.30;;;;;;4877979;29;20048;-88
2022/06/04 09:26:50;;;;;;;9.18;6.07;;;27.50;71.30;;;;;;4881003;29;20025;-87
2022/06/04 09:29:48;;;;;;;7.90;5.40;;;26.50;73.50;;;;;;4881641;29;20068;-88
2022/06/04 09:32:44;;;;;;;10.55;5.75;;;25.80;75.40;;;;;;4866170;29;20025;-88
2022/06/04 09:35:35;;;;;;;11.05;5.43;;;25.00;78.80;;;;;;4882387;29;20437;-88
2022/06/04 09:38:00;;;;;;;11.90;7.22;;;25.40;77.60;;;;;;4866399;29;20096;-87
2022/06/04 09:40:31;;;;;;;7.03;5.35;;;25.50;78.10;;;;;;4881743;29;20457;-87
2022/06/04 09:43:14;;;;;;;9.18;6.38;;;25.60;77.70;;;;;;4941597;29;20039;-89
2022/06/04 09:45:41;;;;;;;10.02;6.47;;;25.70;76.80;;;;;;4942022;29;20046;-88
2022/06/04 09:48:20;;;;;;;10.48;8.32;;;25.50;78.20;;;;;;4942816;29;20027;-86
2022/06/04 09:50:56;;;;;;;12.75;8.65;;;25.50;78.00;;;;;;4943924;29;20414;-93
2022/06/04 09:53:32;;;;;;;12.40;7.88;;;26.10;76.70;;;;;;4942317;29;20019;-87
2022/06/04 09:56:14;;;;;;;8.50;6.85;;;26.50;74.90;;;;;;4947212;28;20023;-88
2022/06/04 09:58:43;;;;;;;8.60;6.82;;;26.40;74.60;;;;;;4959334;28;20027;-89
2022/06/04 10:01:23;;;;;;;11.52;7.63;;;25.70;77.20;;;;;;4961074;28;20022;-88
2022/06/04 10:04:14;;;;;;;9.23;7.15;;;25.90;77.00;;;;;;4949827;29;20042;-83
2022/06/04 10:07:04;;;;;;;;;;;26.10;76.50;;;;;;4932868;29;20019;-90
2022/06/04 10:12:21;;;;;;;8.35;6.18;;;26.00;76.30;;;;;;4954825;28;20122;-88
2022/06/04 10:14:58;;;;;;;9.63;6.40;;;26.10;76.60;;;;;;4957066;28;20020;-88
2022/06/04 10:17:39;;;;;;;10.73;6.65;;;26.60;75.50;;;;;;4951917;28;20027;-88
2022/06/04 10:20:19;;;;;;;10.85;6.70;;;26.70;74.80;;;;;;4948722;28;20113;-94
2022/06/04 10:22:49;;;;;;;10.43;7.30;;;27.00;73.80;;;;;;4954980;28;20126;-90
2022/06/04 10:25:22;;;;;;;7.53;5.10;;;27.20;73.40;;;;;;4946354;29;20035;-90
2022/06/04 10:28:14;;;;;;;9.07;6.28;;;27.10;73.30;;;;;;4947685;28;20095;-85
2022/06/04 10:30:50;;;;;;;8.10;4.82;;;27.30;73.20;;;;;;4975669;28;20041;-88
2022/06/04 10:33:50;;;;;;;5.78;4.13;;;27.60;72.60;;;;;;4960587;28;20413;-94
2022/06/04 10:36:18;;;;;;;9.97;6.47;;;27.30;71.80;;;;;;4960804;28;20031;-88
2022/06/04 10:39:10;;;;;;;7.13;5.00;;;27.50;71.80;;;;;;4959504;28;20283;-86
2022/06/04 10:42:01;;;;;;;7.75;5.63;;;28.00;70.90;;;;;;4960081;28;20121;-85
2022/06/04 10:44:58;;;;;;;10.07;6.60;;;28.20;70.60;;;;;;4960036;28;20027;-89
2022/06/04 10:47:44;;;;;;;9.40;7.13;;;28.50;69.80;;;;;;4617068;28;9999610;-89
2022/06/04 10:50:15;;;;;;;9.13;5.28;;;28.70;69.10;;;;;;4968389;28;20078;-88
2022/06/04 10:53:00;;;;;;;6.78;4.72;;;28.30;69.90;;;;;;4979181;28;20022;-85
2022/06/04 10:55:46;;;;;;;7.90;4.90;;;27.60;71.50;;;;;;4982548;28;20416;-85
2022/06/04 10:58:17;;;;;;;8.25;6.00;;;27.30;72.90;;;;;;4969474;28;20027;-91
2022/06/04 11:00:57;;;;;;;8.65;6.38;;;27.40;73.70;;;;;;4960037;28;20042;-87
2022/06/04 11:03:50;;;;;;;7.60;5.37;;;27.90;73.40;;;;;;4960163;28;20062;-87
2022/06/04 11:06:27;;;;;;;10.10;6.25;;;28.30;70.90;;;;;;4949215;29;20030;-92
2022/06/04 11:09:05;;;;;;;7.22;4.85;;;28.80;70.20;;;;;;4942051;29;20027;-92
2022/06/04 11:11:41;;;;;;;9.52;5.97;;;28.90;70.80;;;;;;4940519;29;20414;-83
2022/06/04 11:14:24;;;;;;;5.93;4.38;;;28.80;70.00;;;;;;4948501;28;20204;-85
2022/06/04 11:17:00;;;;;;;6.85;5.05;;;28.80;69.00;;;;;;4941033;29;20039;-85
2022/06/04 11:20:17;;;;;;;7.25;5.07;;;29.00;68.70;;;;;;4939947;29;20367;-84
2022/06/04 11:22:56;;;;;;;7.60;5.90;;;29.10;68.90;;;;;;4935415;29;20039;-87
2022/06/04 11:25:30;;;;;;;6.20;5.00;;;29.20;69.10;;;;;;4940722;29;20016;-85
2022/06/04 11:28:09;;;;;;;8.65;5.18;;;29.40;68.70;;;;;;4940414;29;20021;-86
2022/06/04 11:31:10;;;;;;;6.63;4.35;;;29.60;68.60;;;;;;4940467;29;20023;-85
2022/06/04 11:34:14;;;;;;;8.63;4.70;;;29.70;68.30;;;;;;4939470;29;20034;-82
2022/06/04 11:36:42;;;;;;;4.80;3.90;;;29.50;68.60;;;;;;4955663;28;20525;-82
2022/06/04 11:39:23;;;;;;;6.78;4.18;;;29.20;68.80;;;;;;4955355;28;20053;-84
2022/06/04 11:41:59;;;;;;;5.15;3.75;;;29.10;68.90;;;;;;4939971;29;20036;-85
2022/06/04 11:44:38;;;;;;;4.93;3.85;;;29.30;69.10;;;;;;4939619;29;20045;-83
2022/06/04 11:47:48;;;;;;;6.38;3.75;;;29.30;68.30;;;;;;4939161;29;20034;-82
2022/06/04 11:50:37;;;;;;;7.90;3.67;;;29.30;68.40;;;;;;4938401;29;20039;-83
2022/06/04 11:53:05;;;;;;;5.40;4.20;;;29.50;68.00;;;;;;4955023;29;20031;-80
2022/06/04 11:55:55;;;;;;;5.50;4.10;;;29.80;68.20;;;;;;4955993;29;20050;-78
2022/06/04 11:58:45;;;;;;;6.40;4.10;;;30.10;67.90;;;;;;4956435;28;20016;-78
2022/06/04 12:01:18;;;;;;;4.63;3.20;;;30.10;66.50;;;;;;4955825;29;20038;-82
2022/06/04 12:04:07;;;;;;;4.80;3.97;;;29.90;67.50;;;;;;4955611;28;20495;-80
2022/06/04 12:06:43;;;;;;;5.20;3.97;;;30.00;67.70;;;;;;4937117;28;20382;-80
2022/06/04 12:09:29;;;;;;;4.00;3.20;;;30.20;68.50;;;;;;4939642;29;20413;-82
2022/06/04 12:12:06;;;;;;;4.78;3.80;;;29.90;66.90;;;;;;4940130;28;20118;-85
2022/06/04 12:15:02;;;;;;;5.65;3.70;;;30.00;67.00;;;;;;4959875;28;20058;-94
2022/06/04 12:17:50;;;;;;;4.88;3.78;;;29.80;66.50;;;;;;4959078;28;20069;-83
2022/06/04 12:26:20;;;;;;;5.22;3.55;;;30.30;66.90;;;;;;4993265;28;20025;-93
2022/06/04 12:28:46;;;;;;;6.38;3.80;;;30.40;66.00;;;;;;4964068;28;20070;-88
2022/06/04 12:31:12;;;;;;;6.13;3.50;;;30.50;67.00;;;;;;4974254;28;20081;-81
2022/06/04 12:33:50;;;;;;;5.18;3.90;;;29.10;67.00;;;;;;4958011;28;20133;-86
2022/06/04 12:36:37;;;;;;;4.13;3.35;;;29.20;68.60;;;;;;4958102;28;20023;-83
2022/06/04 12:39:19;;;;;;;4.88;3.40;;;29.50;67.50;;;;;;4615671;28;10000183;-81
2022/06/04 12:41:51;;;;;;;5.45;3.58;;;29.80;66.50;;;;;;4951871;28;20031;-81
2022/06/04 12:44:54;;;;;;;5.75;3.60;;;30.40;65.90;;;;;;4936480;29;20110;-84
2022/06/04 12:47:26;;;;;;;4.38;3.53;;;30.40;65.70;;;;;;4934976;29;20122;-80
2022/06/04 12:50:15;;;;;;;3.90;3.13;;;30.30;66.60;;;;;;4937659;28;20054;-81
2022/06/04 12:53:00;;;;;;;4.85;3.50;;;30.60;67.80;;;;;;4971501;28;20046;-81
2022/06/04 12:55:31;;;;;;;5.50;3.53;;;30.90;65.70;;;;;;4946766;28;20089;-81
2022/06/04 12:58:38;;;;;;;3.88;2.90;;;31.20;65.10;;;;;;4972161;28;20073;-82
2022/06/04 13:01:26;;;;;;;5.88;3.17;;;31.30;65.80;;;;;;4952840;28;20162;-80
2022/06/04 13:04:10;;;;;;;5.07;3.35;;;30.70;64.80;;;;;;4947337;28;20039;-86
2022/06/04 13:06:48;;;;;;;5.47;3.65;;;30.20;67.40;;;;;;4954978;28;20114;-80
2022/06/04 13:09:35;;;;;;;6.28;3.25;;;30.50;66.00;;;;;;4628432;28;10000990;-92
2022/06/04 13:12:20;;;;;;;4.15;3.10;;;30.90;65.60;;;;;;4955592;28;20031;-85
2022/06/04 13:15:20;;;;;;;6.10;3.20;;;30.90;64.90;;;;;;4973080;28;20428;-82
2022/06/04 13:17:50;;;;;;;7.00;3.10;;;30.80;64.30;;;;;;4957685;28;20030;-86
2022/06/04 13:20:34;;;;;;;5.80;3.17;;;31.10;65.10;;;;;;4963177;28;20023;-80
2022/06/04 13:23:09;;;;;;;4.82;3.10;;;31.30;64.70;;;;;;4957548;28;20034;-84
2022/06/04 13:25:45;;;;;;;7.40;3.00;;;31.10;64.70;;;;;;4956984;28;20054;-78
2022/06/04 13:28:36;;;;;;;5.35;3.10;;;31.30;66.00;;;;;;4964254;28;20018;-79
2022/06/04 13:31:03;;;;;;;6.95;3.10;;;31.00;66.20;;;;;;4953643;28;20059;-80
2022/06/04 13:33:29;;;;;;;4.78;3.10;;;31.00;66.10;;;;;;4949310;28;20026;-79
2022/06/04 13:36:00;;;;;;;4.65;3.03;;;30.40;67.00;;;;;;4953289;29;20054;-85
2022/06/04 13:38:32;;;;;;;5.30;3.08;;;30.30;66.80;;;;;;4948795;28;20023;-83
2022/06/04 13:41:03;;;;;;;4.00;2.92;;;30.60;65.80;;;;;;4973580;28;20037;-84